sensor_id;sensor_type;location;lat;lon;timestamp;temperature;humidity
25046;DHT22;13044;49.304;12.840;2024-03-23T00:54:10;11.40;99.90
25046;DHT22;13044;49.304;12.840;2024-03-23T00:56:36;11.40;99.90
25046;DHT22;13044;49.304;12.840;2024-03-23T00:59:02;11.30;99.90
25046;DHT22;13044;49.304;12.840;2024-03-23T01:01:28;11.20;99.90
25046;DHT22;13044;49.304;12.840;2024-03-23T01:03:54;11.20;99.90
25046;DHT22;13044;49.304;12.840;2024-03-23T01:06:20;11.10;99.90
25046;DHT22;13044;49.304;12.840;2024-03-23T01:08:46;11.00;99.90
25046;DHT22;13044;49.304;12.840;2024-03-23T01:11:12;11.00;99.90
25046;DHT22;13044;49.304;12.840;2024-03-23T01:13:38;10.90;99.90
25046;DHT22;13044;49.304;12.840;2024-03-23T01:16:04;10.80;99.90
25046;DHT22;13044;49.304;12.840;2024-03-23T01:18:30;10.80;99.90
25046;DHT22;13044;49.304;12.840;2024-03-23T01:20:56;10.70;99.90
25046;DHT22;13044;49.304;12.840;2024-03-23T01:23:22;10.70;99.90
25046;DHT22;13044;49.304;12.840;2024-03-23T01:25:54;10.70;99.90
25046;DHT22;13044;49.304;12.840;2024-03-23T01:28:21;10.60;99.90
25046;DHT22;13044;49.304;12.840;2024-03-23T01:30:47;10.60;99.90
25046;DHT22;13044;49.304;12.840;2024-03-23T01:33:14;10.50;99.90
25046;DHT22;13044;49.304;12.840;2024-03-23T01:35:40;10.50;99.90
25046;DHT22;13044;49.304;12.840;2024-03-23T01:38:06;10.40;99.90
25046;DHT22;13044;49.304;12.840;2024-03-23T01:40:32;10.40;99.90
25046;DHT22;13044;49.304;12.840;2024-03-23T01:43:02;10.40;99.90
25046;DHT22;13044;49.304;12.840;2024-03-23T01:45:30;10.30;99.90
25046;DHT22;13044;49.304;12.840;2024-03-23T01:47:56;10.30;99.90
25046;DHT22;13044;49.304;12.840;2024-03-23T01:50:23;10.30;99.90
25046;DHT22;13044;49.304;12.840;2024-03-23T01:52:49;10.20;99.90
25046;DHT22;13044;49.304;12.840;2024-03-23T01:55:16;10.20;99.90
25046;DHT22;13044;49.304;12.840;2024-03-23T01:57:42;10.20;99.90
25046;DHT22;13044;49.304;12.840;2024-03-23T02:00:08;10.20;99.90
25046;DHT22;13044;49.304;12.840;2024-03-23T02:02:44;10.10;99.90
25046;DHT22;13044;49.304;12.840;2024-03-23T02:05:14;10.00;99.90
25046;DHT22;13044;49.304;12.840;2024-03-23T02:07:41;10.00;99.90
25046;DHT22;13044;49.304;12.840;2024-03-23T02:10:09;10.00;99.90
25046;DHT22;13044;49.304;12.840;2024-03-23T02:12:37;9.90;99.90
25046;DHT22;13044;49.304;12.840;2024-03-23T02:15:03;9.90;99.90
25046;DHT22;13044;49.304;12.840;2024-03-23T02:17:31;9.80;99.90
25046;DHT22;13044;49.304;12.840;2024-03-23T02:19:59;9.80;99.90
25046;DHT22;13044;49.304;12.840;2024-03-23T02:22:34;9.70;99.90
25046;DHT22;13044;49.304;12.840;2024-03-23T02:25:04;9.70;99.90
25046;DHT22;13044;49.304;12.840;2024-03-23T02:27:31;9.70;99.90
25046;DHT22;13044;49.304;12.840;2024-03-23T02:29:58;9.70;99.90
25046;DHT22;13044;49.304;12.840;2024-03-23T02:32:24;9.60;99.90
25046;DHT22;13044;49.304;12.840;2024-03-23T02:34:50;9.60;99.90
25046;DHT22;13044;49.304;12.840;2024-03-23T02:37:16;9.50;99.90
25046;DHT22;13044;49.304;12.840;2024-03-23T02:39:42;9.50;99.90
25046;DHT22;13044;49.304;12.840;2024-03-23T02:42:08;9.50;99.90
25046;DHT22;13044;49.304;12.840;2024-03-23T02:44:33;9.40;99.90
25046;DHT22;13044;49.304;12.840;2024-03-23T02:46:59;9.40;99.90
25046;DHT22;13044;49.304;12.840;2024-03-23T02:49:26;9.40;99.90
25046;DHT22;13044;49.304;12.840;2024-03-23T02:51:52;9.30;99.90
25046;DHT22;13044;49.304;12.840;2024-03-23T02:54:18;9.30;99.90
25046;DHT22;13044;49.304;12.840;2024-03-23T02:56:44;9.30;99.90
25046;DHT22;13044;49.304;12.840;2024-03-23T02:59:10;9.20;99.90
25046;DHT22;13044;49.304;12.840;2024-03-23T03:01:36;9.20;99.90
25046;DHT22;13044;49.304;12.840;2024-03-23T03:04:02;9.10;99.90
25046;DHT22;13044;49.304;12.840;2024-03-23T03:06:31;9.10;99.90
25046;DHT22;13044;49.304;12.840;2024-03-23T03:08:57;9.00;99.90
25046;DHT22;13044;49.304;12.840;2024-03-23T03:11:23;9.00;99.90
25046;DHT22;13044;49.304;12.840;2024-03-23T03:13:49;9.00;99.90
25046;DHT22;13044;49.304;12.840;2024-03-23T03:16:15;9.00;99.90
25046;DHT22;13044;49.304;12.840;2024-03-23T03:18:41;8.90;99.90
25046;DHT22;13044;49.304;12.840;2024-03-23T03:21:07;8.90;99.90
25046;DHT22;13044;49.304;12.840;2024-03-23T03:23:37;8.90;99.90
25046;DHT22;13044;49.304;12.840;2024-03-23T03:26:07;8.80;99.90
25046;DHT22;13044;49.304;12.840;2024-03-23T03:28:33;8.80;99.90
25046;DHT22;13044;49.304;12.840;2024-03-23T03:31:00;8.80;99.90
25046;DHT22;13044;49.304;12.840;2024-03-23T03:33:27;8.80;99.90
25046;DHT22;13044;49.304;12.840;2024-03-23T03:35:53;8.80;99.90
25046;DHT22;13044;49.304;12.840;2024-03-23T03:38:20;8.70;99.90
25046;DHT22;13044;49.304;12.840;2024-03-23T03:40:46;8.70;99.90
25046;DHT22;13044;49.304;12.840;2024-03-23T03:43:12;8.70;99.90
25046;DHT22;13044;49.304;12.840;2024-03-23T03:45:38;8.80;99.90
25046;DHT22;13044;49.304;12.840;2024-03-23T03:48:04;8.80;99.90
25046;DHT22;13044;49.304;12.840;2024-03-23T03:50:30;8.80;99.90
25046;DHT22;13044;49.304;12.840;2024-03-23T03:52:56;8.80;99.90
25046;DHT22;13044;49.304;12.840;2024-03-23T03:55:22;8.80;99.90
25046;DHT22;13044;49.304;12.840;2024-03-23T03:57:48;8.80;99.90
25046;DHT22;13044;49.304;12.840;2024-03-23T04:00:14;8.90;99.90
25046;DHT22;13044;49.304;12.840;2024-03-23T04:02:41;8.80;99.90
25046;DHT22;13044;49.304;12.840;2024-03-23T04:05:07;8.80;99.90
25046;DHT22;13044;49.304;12.840;2024-03-23T04:07:34;8.80;99.90
25046;DHT22;13044;49.304;12.840;2024-03-23T04:10:00;8.80;99.90
25046;DHT22;13044;49.304;12.840;2024-03-23T04:12:26;8.80;99.90
25046;DHT22;13044;49.304;12.840;2024-03-23T04:14:52;8.70;99.90
25046;DHT22;13044;49.304;12.840;2024-03-23T04:17:18;8.70;99.90
25046;DHT22;13044;49.304;12.840;2024-03-23T04:19:44;8.70;99.90
25046;DHT22;13044;49.304;12.840;2024-03-23T04:22:10;8.70;99.90
25046;DHT22;13044;49.304;12.840;2024-03-23T04:24:36;8.70;99.90
25046;DHT22;13044;49.304;12.840;2024-03-23T04:27:02;8.70;99.90
25046;DHT22;13044;49.304;12.840;2024-03-23T04:29:28;8.70;99.90
25046;DHT22;13044;49.304;12.840;2024-03-23T04:31:54;8.80;99.90
25046;DHT22;13044;49.304;12.840;2024-03-23T04:34:21;8.90;99.90
25046;DHT22;13044;49.304;12.840;2024-03-23T04:36:48;8.90;99.90
25046;DHT22;13044;49.304;12.840;2024-03-23T04:39:14;9.00;99.90
25046;DHT22;13044;49.304;12.840;2024-03-23T04:41:40;9.00;99.90
25046;DHT22;13044;49.304;12.840;2024-03-23T04:44:06;9.10;99.90
25046;DHT22;13044;49.304;12.840;2024-03-23T04:46:32;9.10;99.90
25046;DHT22;13044;49.304;12.840;2024-03-23T04:48:58;9.10;99.90
25046;DHT22;13044;49.304;12.840;2024-03-23T04:51:24;9.10;99.90
25046;DHT22;13044;49.304;12.840;2024-03-23T04:53:50;9.20;99.90
25046;DHT22;13044;49.304;12.840;2024-03-23T04:56:17;9.20;99.90
25046;DHT22;13044;49.304;12.840;2024-03-23T04:58:43;9.20;99.90
25046;DHT22;13044;49.304;12.840;2024-03-23T05:01:10;9.20;99.90
25046;DHT22;13044;49.304;12.840;2024-03-23T05:03:37;9.20;99.90
25046;DHT22;13044;49.304;12.840;2024-03-23T05:06:03;9.20;99.90
25046;DHT22;13044;49.304;12.840;2024-03-23T05:08:29;9.20;99.90
25046;DHT22;13044;49.304;12.840;2024-03-23T05:10:55;9.30;99.90
25046;DHT22;13044;49.304;12.840;2024-03-23T05:13:21;9.30;99.90
25046;DHT22;13044;49.304;12.840;2024-03-23T05:15:52;9.20;99.90
25046;DHT22;13044;49.304;12.840;2024-03-23T05:18:19;9.20;99.90
25046;DHT22;13044;49.304;12.840;2024-03-23T05:20:45;9.20;99.90
25046;DHT22;13044;49.304;12.840;2024-03-23T05:23:11;9.20;99.90
25046;DHT22;13044;49.304;12.840;2024-03-23T05:25:37;9.20;99.90
25046;DHT22;13044;49.304;12.840;2024-03-23T05:28:03;9.20;99.90
25046;DHT22;13044;49.304;12.840;2024-03-23T05:30:29;9.20;99.90
25046;DHT22;13044;49.304;12.840;2024-03-23T05:32:55;9.20;99.90
25046;DHT22;13044;49.304;12.840;2024-03-23T05:35:21;9.20;99.90
25046;DHT22;13044;49.304;12.840;2024-03-23T05:37:47;9.20;99.90
25046;DHT22;13044;49.304;12.840;2024-03-23T05:40:13;9.20;99.90
25046;DHT22;13044;49.304;12.840;2024-03-23T05:42:41;9.20;99.90
25046;DHT22;13044;49.304;12.840;2024-03-23T05:45:07;9.20;99.90
25046;DHT22;13044;49.304;12.840;2024-03-23T05:47:33;9.20;99.90
25046;DHT22;13044;49.304;12.840;2024-03-23T05:49:59;9.20;99.90
25046;DHT22;13044;49.304;12.840;2024-03-23T05:52:27;9.20;99.90
25046;DHT22;13044;49.304;12.840;2024-03-23T05:54:53;9.20;99.90
25046;DHT22;13044;49.304;12.840;2024-03-23T05:57:19;9.30;99.90
25046;DHT22;13044;49.304;12.840;2024-03-23T05:59:45;9.30;99.90
25046;DHT22;13044;49.304;12.840;2024-03-23T06:02:11;9.30;99.90
25046;DHT22;13044;49.304;12.840;2024-03-23T06:04:37;9.30;99.90
25046;DHT22;13044;49.304;12.840;2024-03-23T06:07:03;9.40;99.90
25046;DHT22;13044;49.304;12.840;2024-03-23T06:09:32;9.40;99.90
25046;DHT22;13044;49.304;12.840;2024-03-23T06:11:58;9.40;99.90
25046;DHT22;13044;49.304;12.840;2024-03-23T06:14:24;9.50;99.90
25046;DHT22;13044;49.304;12.840;2024-03-23T06:16:50;9.60;99.90
25046;DHT22;13044;49.304;12.840;2024-03-23T06:19:16;9.60;99.90
25046;DHT22;13044;49.304;12.840;2024-03-23T06:21:45;9.70;99.90
25046;DHT22;13044;49.304;12.840;2024-03-23T06:24:12;9.70;99.90
25046;DHT22;13044;49.304;12.840;2024-03-23T06:26:38;9.70;99.90
25046;DHT22;13044;49.304;12.840;2024-03-23T06:29:04;9.80;99.90
25046;DHT22;13044;49.304;12.840;2024-03-23T06:31:31;9.90;99.90
25046;DHT22;13044;49.304;12.840;2024-03-23T06:33:57;10.00;99.90
25046;DHT22;13044;49.304;12.840;2024-03-23T06:36:23;10.10;99.90
25046;DHT22;13044;49.304;12.840;2024-03-23T06:38:49;10.30;99.90
25046;DHT22;13044;49.304;12.840;2024-03-23T06:41:15;10.40;99.90
25046;DHT22;13044;49.304;12.840;2024-03-23T06:43:41;10.50;99.90
25046;DHT22;13044;49.304;12.840;2024-03-23T06:46:07;10.60;99.90
25046;DHT22;13044;49.304;12.840;2024-03-23T06:48:33;10.80;99.90
25046;DHT22;13044;49.304;12.840;2024-03-23T06:50:59;11.00;99.90
25046;DHT22;13044;49.304;12.840;2024-03-23T06:53:25;11.20;99.90
25046;DHT22;13044;49.304;12.840;2024-03-23T06:55:54;11.30;99.90
25046;DHT22;13044;49.304;12.840;2024-03-23T06:58:24;11.50;99.90
25046;DHT22;13044;49.304;12.840;2024-03-23T07:00:51;11.60;99.90
25046;DHT22;13044;49.304;12.840;2024-03-23T07:03:17;11.80;99.90
25046;DHT22;13044;49.304;12.840;2024-03-23T07:05:43;12.00;99.90
25046;DHT22;13044;49.304;12.840;2024-03-23T07:08:09;12.20;99.90
25046;DHT22;13044;49.304;12.840;2024-03-23T07:10:35;12.40;99.90
25046;DHT22;13044;49.304;12.840;2024-03-23T07:13:03;12.50;99.90
25046;DHT22;13044;49.304;12.840;2024-03-23T07:15:29;12.70;99.90
25046;DHT22;13044;49.304;12.840;2024-03-23T07:17:55;12.90;99.90
25046;DHT22;13044;49.304;12.840;2024-03-23T07:20:22;13.00;99.90
25046;DHT22;13044;49.304;12.840;2024-03-23T07:22:48;13.20;99.90
25046;DHT22;13044;49.304;12.840;2024-03-23T07:25:14;13.30;99.90
25046;DHT22;13044;49.304;12.840;2024-03-23T07:27:40;13.40;99.90
25046;DHT22;13044;49.304;12.840;2024-03-23T07:30:07;13.60;99.90
25046;DHT22;13044;49.304;12.840;2024-03-23T07:32:35;13.80;99.90
25046;DHT22;13044;49.304;12.840;2024-03-23T07:35:01;13.80;99.90
25046;DHT22;13044;49.304;12.840;2024-03-23T07:37:28;13.90;99.90
25046;DHT22;13044;49.304;12.840;2024-03-23T07:39:54;14.00;99.90
25046;DHT22;13044;49.304;12.840;2024-03-23T07:42:20;14.10;99.90
25046;DHT22;13044;49.304;12.840;2024-03-23T07:44:46;14.00;99.90
25046;DHT22;13044;49.304;12.840;2024-03-23T07:47:12;14.00;99.90
25046;DHT22;13044;49.304;12.840;2024-03-23T07:49:38;14.00;99.90
25046;DHT22;13044;49.304;12.840;2024-03-23T07:52:06;14.00;99.90
25046;DHT22;13044;49.304;12.840;2024-03-23T07:54:33;14.00;99.90
25046;DHT22;13044;49.304;12.840;2024-03-23T07:56:59;14.00;99.90
25046;DHT22;13044;49.304;12.840;2024-03-23T07:59:25;14.00;99.90
25046;DHT22;13044;49.304;12.840;2024-03-23T08:01:51;13.90;99.90
25046;DHT22;13044;49.304;12.840;2024-03-23T08:04:17;13.90;99.90
25046;DHT22;13044;49.304;12.840;2024-03-23T08:06:43;13.80;99.90
25046;DHT22;13044;49.304;12.840;2024-03-23T08:09:09;13.70;99.90
25046;DHT22;13044;49.304;12.840;2024-03-23T08:11:35;13.70;99.90
25046;DHT22;13044;49.304;12.840;2024-03-23T08:14:04;13.50;99.90
25046;DHT22;13044;49.304;12.840;2024-03-23T08:16:31;13.40;99.90
25046;DHT22;13044;49.304;12.840;2024-03-23T08:18:57;13.30;99.90
25046;DHT22;13044;49.304;12.840;2024-03-23T08:21:23;13.20;99.90
25046;DHT22;13044;49.304;12.840;2024-03-23T08:23:50;13.20;99.90
25046;DHT22;13044;49.304;12.840;2024-03-23T08:26:16;13.10;99.90
25046;DHT22;13044;49.304;12.840;2024-03-23T08:28:45;12.90;99.90
25046;DHT22;13044;49.304;12.840;2024-03-23T08:31:12;12.80;99.90
25046;DHT22;13044;49.304;12.840;2024-03-23T08:33:40;12.70;99.90
25046;DHT22;13044;49.304;12.840;2024-03-23T08:36:09;12.60;99.90
25046;DHT22;13044;49.304;12.840;2024-03-23T08:38:38;12.50;99.90
25046;DHT22;13044;49.304;12.840;2024-03-23T08:41:05;12.40;99.90
25046;DHT22;13044;49.304;12.840;2024-03-23T08:43:40;12.30;99.90
25046;DHT22;13044;49.304;12.840;2024-03-23T08:48:39;12.10;99.90
25046;DHT22;13044;49.304;12.840;2024-03-23T08:51:07;12.10;99.90
25046;DHT22;13044;49.304;12.840;2024-03-23T08:53:35;12.00;99.90
25046;DHT22;13044;49.304;12.840;2024-03-23T08:56:02;11.90;99.90
25046;DHT22;13044;49.304;12.840;2024-03-23T08:58:30;11.90;99.90
25046;DHT22;13044;49.304;12.840;2024-03-23T09:01:09;11.80;99.90
25046;DHT22;13044;49.304;12.840;2024-03-23T09:03:36;11.70;99.90
25046;DHT22;13044;49.304;12.840;2024-03-23T09:06:07;11.60;99.90
25046;DHT22;13044;49.304;12.840;2024-03-23T09:08:38;11.60;99.90
25046;DHT22;13044;49.304;12.840;2024-03-23T09:11:13;11.60;99.90
25046;DHT22;13044;49.304;12.840;2024-03-23T09:13:39;11.50;99.90
25046;DHT22;13044;49.304;12.840;2024-03-23T09:16:07;11.50;99.90
25046;DHT22;13044;49.304;12.840;2024-03-23T09:18:35;11.40;99.90
25046;DHT22;13044;49.304;12.840;2024-03-23T09:21:03;11.40;99.90
25046;DHT22;13044;49.304;12.840;2024-03-23T09:23:29;11.30;99.90
25046;DHT22;13044;49.304;12.840;2024-03-23T09:25:55;11.30;99.90
25046;DHT22;13044;49.304;12.840;2024-03-23T09:28:22;11.30;99.90
25046;DHT22;13044;49.304;12.840;2024-03-23T09:30:48;11.30;99.90
25046;DHT22;13044;49.304;12.840;2024-03-23T09:33:14;11.30;99.90
25046;DHT22;13044;49.304;12.840;2024-03-23T09:35:41;11.30;99.90
25046;DHT22;13044;49.304;12.840;2024-03-23T09:38:07;11.30;99.90
25046;DHT22;13044;49.304;12.840;2024-03-23T09:40:39;11.20;99.90
25046;DHT22;13044;49.304;12.840;2024-03-23T09:43:07;11.20;99.90
25046;DHT22;13044;49.304;12.840;2024-03-23T09:45:38;11.20;99.90
25046;DHT22;13044;49.304;12.840;2024-03-23T09:48:09;11.20;99.90
25046;DHT22;13044;49.304;12.840;2024-03-23T09:50:42;11.20;99.90
25046;DHT22;13044;49.304;12.840;2024-03-23T09:53:13;11.20;99.90
25046;DHT22;13044;49.304;12.840;2024-03-23T09:55:41;11.10;99.90
25046;DHT22;13044;49.304;12.840;2024-03-23T09:58:08;11.10;99.90
25046;DHT22;13044;49.304;12.840;2024-03-23T10:00:35;11.10;99.90
25046;DHT22;13044;49.304;12.840;2024-03-23T10:03:01;11.20;99.90
25046;DHT22;13044;49.304;12.840;2024-03-23T10:05:28;11.10;99.90
25046;DHT22;13044;49.304;12.840;2024-03-23T10:07:55;11.10;99.90
25046;DHT22;13044;49.304;12.840;2024-03-23T10:10:21;11.10;99.90
25046;DHT22;13044;49.304;12.840;2024-03-23T10:12:48;11.10;99.90
25046;DHT22;13044;49.304;12.840;2024-03-23T10:15:22;11.10;99.90
25046;DHT22;13044;49.304;12.840;2024-03-23T10:17:50;11.10;99.90
25046;DHT22;13044;49.304;12.840;2024-03-23T10:20:23;11.10;99.90
25046;DHT22;13044;49.304;12.840;2024-03-23T10:22:50;11.20;99.90
25046;DHT22;13044;49.304;12.840;2024-03-23T10:25:17;11.20;99.90
25046;DHT22;13044;49.304;12.840;2024-03-23T10:27:43;11.20;99.90
25046;DHT22;13044;49.304;12.840;2024-03-23T10:30:11;11.20;99.90
25046;DHT22;13044;49.304;12.840;2024-03-23T10:32:38;11.20;99.90
25046;DHT22;13044;49.304;12.840;2024-03-23T10:35:18;11.20;99.90
25046;DHT22;13044;49.304;12.840;2024-03-23T10:37:47;11.30;99.90
25046;DHT22;13044;49.304;12.840;2024-03-23T10:40:17;11.30;99.90
25046;DHT22;13044;49.304;12.840;2024-03-23T10:42:46;11.40;99.90
25046;DHT22;13044;49.304;12.840;2024-03-23T10:45:12;11.40;99.90
25046;DHT22;13044;49.304;12.840;2024-03-23T10:47:38;11.30;99.90
25046;DHT22;13044;49.304;12.840;2024-03-23T10:50:04;11.30;99.90
25046;DHT22;13044;49.304;12.840;2024-03-23T10:52:33;11.30;99.90
25046;DHT22;13044;49.304;12.840;2024-03-23T10:55:03;11.30;99.90
25046;DHT22;13044;49.304;12.840;2024-03-23T11:00:04;11.30;99.90
25046;DHT22;13044;49.304;12.840;2024-03-23T11:02:31;11.20;99.90
25046;DHT22;13044;49.304;12.840;2024-03-23T11:04:57;11.20;99.90
25046;DHT22;13044;49.304;12.840;2024-03-23T11:07:30;11.20;99.90
25046;DHT22;13044;49.304;12.840;2024-03-23T11:10:00;11.10;99.90
25046;DHT22;13044;49.304;12.840;2024-03-23T11:12:27;11.10;99.90
25046;DHT22;13044;49.304;12.840;2024-03-23T11:15:04;11.10;99.90
25046;DHT22;13044;49.304;12.840;2024-03-23T11:17:31;11.20;99.90
25046;DHT22;13044;49.304;12.840;2024-03-23T11:19:59;11.20;99.90
25046;DHT22;13044;49.304;12.840;2024-03-23T11:25:17;11.20;99.90
25046;DHT22;13044;49.304;12.840;2024-03-23T11:27:48;11.20;99.90
25046;DHT22;13044;49.304;12.840;2024-03-23T11:30:16;11.10;99.90
25046;DHT22;13044;49.304;12.840;2024-03-23T11:32:44;11.20;99.90
25046;DHT22;13044;49.304;12.840;2024-03-23T11:35:25;11.10;99.90
25046;DHT22;13044;49.304;12.840;2024-03-23T11:38:10;11.10;99.90
25046;DHT22;13044;49.304;12.840;2024-03-23T11:43:14;11.10;99.90
25046;DHT22;13044;49.304;12.840;2024-03-23T11:45:50;11.00;99.90
25046;DHT22;13044;49.304;12.840;2024-03-23T11:48:22;11.10;99.90
25046;DHT22;13044;49.304;12.840;2024-03-23T11:50:50;11.00;99.90
25046;DHT22;13044;49.304;12.840;2024-03-23T11:53:21;11.00;99.90
25046;DHT22;13044;49.304;12.840;2024-03-23T11:55:52;10.90;99.90
25046;DHT22;13044;49.304;12.840;2024-03-23T11:58:23;10.90;99.90
25046;DHT22;13044;49.304;12.840;2024-03-23T12:01:10;10.90;99.90
25046;DHT22;13044;49.304;12.840;2024-03-23T12:03:36;11.00;99.90
25046;DHT22;13044;49.304;12.840;2024-03-23T12:06:03;11.00;99.90
25046;DHT22;13044;49.304;12.840;2024-03-23T12:08:32;11.10;99.90
25046;DHT22;13044;49.304;12.840;2024-03-23T12:13:38;11.30;99.90
25046;DHT22;13044;49.304;12.840;2024-03-23T12:18:47;11.30;99.90
25046;DHT22;13044;49.304;12.840;2024-03-23T12:21:15;11.30;99.90
25046;DHT22;13044;49.304;12.840;2024-03-23T12:23:42;11.30;99.90
25046;DHT22;13044;49.304;12.840;2024-03-23T12:26:11;11.30;99.90
25046;DHT22;13044;49.304;12.840;2024-03-23T12:28:38;11.40;99.90
25046;DHT22;13044;49.304;12.840;2024-03-23T12:31:04;11.50;99.90
25046;DHT22;13044;49.304;12.840;2024-03-23T12:33:33;11.60;99.90
25046;DHT22;13044;49.304;12.840;2024-03-23T12:35:59;11.70;99.90
25046;DHT22;13044;49.304;12.840;2024-03-23T12:38:25;11.70;99.90
25046;DHT22;13044;49.304;12.840;2024-03-23T12:40:52;11.70;99.90
25046;DHT22;13044;49.304;12.840;2024-03-23T12:43:18;11.70;99.90
25046;DHT22;13044;49.304;12.840;2024-03-23T12:45:48;11.80;99.90
25046;DHT22;13044;49.304;12.840;2024-03-23T12:48:15;11.90;99.90
25046;DHT22;13044;49.304;12.840;2024-03-23T12:50:41;12.00;99.90
25046;DHT22;13044;49.304;12.840;2024-03-23T12:53:07;12.00;99.90
25046;DHT22;13044;49.304;12.840;2024-03-23T12:55:35;11.90;99.90
25046;DHT22;13044;49.304;12.840;2024-03-23T12:58:01;11.90;99.90
25046;DHT22;13044;49.304;12.840;2024-03-23T13:00:27;11.80;99.90
25046;DHT22;13044;49.304;12.840;2024-03-23T13:02:53;11.70;99.90
25046;DHT22;13044;49.304;12.840;2024-03-23T13:05:19;11.50;99.90
25046;DHT22;13044;49.304;12.840;2024-03-23T13:07:45;11.30;99.90
25046;DHT22;13044;49.304;12.840;2024-03-23T13:10:11;11.30;99.90
25046;DHT22;13044;49.304;12.840;2024-03-23T13:12:37;11.20;99.90
25046;DHT22;13044;49.304;12.840;2024-03-23T13:15:03;11.20;99.90
25046;DHT22;13044;49.304;12.840;2024-03-23T13:17:29;11.20;99.90
25046;DHT22;13044;49.304;12.840;2024-03-23T13:19:55;11.20;99.90
25046;DHT22;13044;49.304;12.840;2024-03-23T13:22:22;11.20;99.90
25046;DHT22;13044;49.304;12.840;2024-03-23T13:24:48;11.20;99.90
25046;DHT22;13044;49.304;12.840;2024-03-23T13:27:14;11.10;99.90
25046;DHT22;13044;49.304;12.840;2024-03-23T13:29:40;11.10;99.90
25046;DHT22;13044;49.304;12.840;2024-03-23T13:32:07;11.10;99.90
25046;DHT22;13044;49.304;12.840;2024-03-23T13:34:34;11.00;99.90
25046;DHT22;13044;49.304;12.840;2024-03-23T13:37:00;11.10;99.90
25046;DHT22;13044;49.304;12.840;2024-03-23T13:39:27;11.10;99.90
25046;DHT22;13044;49.304;12.840;2024-03-23T13:41:53;11.10;99.90
25046;DHT22;13044;49.304;12.840;2024-03-23T13:44:22;11.10;99.90
25046;DHT22;13044;49.304;12.840;2024-03-23T13:46:48;11.10;99.90
25046;DHT22;13044;49.304;12.840;2024-03-23T13:49:28;11.00;99.90
25046;DHT22;13044;49.304;12.840;2024-03-23T13:51:56;11.00;99.90
25046;DHT22;13044;49.304;12.840;2024-03-23T13:54:27;11.00;99.90
25046;DHT22;13044;49.304;12.840;2024-03-23T13:56:54;10.90;99.90
25046;DHT22;13044;49.304;12.840;2024-03-23T14:03:17;10.90;99.90
25046;DHT22;13044;49.304;12.840;2024-03-23T14:05:46;10.90;99.90
25046;DHT22;13044;49.304;12.840;2024-03-23T14:08:15;10.90;99.90
25046;DHT22;13044;49.304;12.840;2024-03-23T14:10:42;10.90;99.90
25046;DHT22;13044;49.304;12.840;2024-03-23T14:13:08;10.90;99.90
25046;DHT22;13044;49.304;12.840;2024-03-23T14:15:36;10.90;99.90
25046;DHT22;13044;49.304;12.840;2024-03-23T14:18:06;11.00;99.90
25046;DHT22;13044;49.304;12.840;2024-03-23T14:20:31;11.00;99.90
25046;DHT22;13044;49.304;12.840;2024-03-23T14:22:57;10.90;99.90
25046;DHT22;13044;49.304;12.840;2024-03-23T14:25:23;10.90;99.80
25046;DHT22;13044;49.304;12.840;2024-03-23T14:27:53;10.90;99.90
25046;DHT22;13044;49.304;12.840;2024-03-23T14:30:18;10.90;99.20
25046;DHT22;13044;49.304;12.840;2024-03-23T14:32:44;10.80;98.00
25046;DHT22;13044;49.304;12.840;2024-03-23T14:35:10;10.80;97.60
25046;DHT22;13044;49.304;12.840;2024-03-23T14:37:37;10.70;97.30
25046;DHT22;13044;49.304;12.840;2024-03-23T14:40:04;10.70;98.10
25046;DHT22;13044;49.304;12.840;2024-03-23T14:42:30;10.50;96.50
25046;DHT22;13044;49.304;12.840;2024-03-23T14:44:59;10.50;97.40
25046;DHT22;13044;49.304;12.840;2024-03-23T14:47:25;10.50;96.00
25046;DHT22;13044;49.304;12.840;2024-03-23T14:49:51;10.50;96.80
25046;DHT22;13044;49.304;12.840;2024-03-23T14:52:17;10.50;97.60
25046;DHT22;13044;49.304;12.840;2024-03-23T14:54:47;10.60;97.80
25046;DHT22;13044;49.304;12.840;2024-03-23T14:57:13;10.60;97.50
25046;DHT22;13044;49.304;12.840;2024-03-23T14:59:39;10.60;97.60
25046;DHT22;13044;49.304;12.840;2024-03-23T15:02:09;10.60;97.80
25046;DHT22;13044;49.304;12.840;2024-03-23T15:04:35;10.60;96.50
25046;DHT22;13044;49.304;12.840;2024-03-23T15:07:01;10.50;95.90
25046;DHT22;13044;49.304;12.840;2024-03-23T15:09:27;10.50;96.30
25046;DHT22;13044;49.304;12.840;2024-03-23T15:11:53;10.50;96.20
25046;DHT22;13044;49.304;12.840;2024-03-23T15:14:23;10.40;95.40
25046;DHT22;13044;49.304;12.840;2024-03-23T15:16:49;10.30;95.30
25046;DHT22;13044;49.304;12.840;2024-03-23T15:19:16;10.30;95.90
25046;DHT22;13044;49.304;12.840;2024-03-23T15:21:43;10.40;96.30
25046;DHT22;13044;49.304;12.840;2024-03-23T15:24:09;10.40;96.50
25046;DHT22;13044;49.304;12.840;2024-03-23T15:26:37;10.40;95.80
25046;DHT22;13044;49.304;12.840;2024-03-23T15:29:03;10.40;95.30
25046;DHT22;13044;49.304;12.840;2024-03-23T15:31:37;10.30;95.10
25046;DHT22;13044;49.304;12.840;2024-03-23T15:34:03;10.30;95.80
25046;DHT22;13044;49.304;12.840;2024-03-23T15:36:30;10.30;95.70
25046;DHT22;13044;49.304;12.840;2024-03-23T15:38:56;10.30;96.10
25046;DHT22;13044;49.304;12.840;2024-03-23T15:41:23;10.20;96.20
25046;DHT22;13044;49.304;12.840;2024-03-23T15:43:50;10.20;96.50
25046;DHT22;13044;49.304;12.840;2024-03-23T15:46:16;10.20;96.30
25046;DHT22;13044;49.304;12.840;2024-03-23T15:48:44;10.20;96.30
25046;DHT22;13044;49.304;12.840;2024-03-23T15:51:12;10.20;96.90
25046;DHT22;13044;49.304;12.840;2024-03-23T15:53:38;10.20;96.60
25046;DHT22;13044;49.304;12.840;2024-03-23T15:56:04;10.20;96.20
25046;DHT22;13044;49.304;12.840;2024-03-23T15:58:32;10.20;96.90
25046;DHT22;13044;49.304;12.840;2024-03-23T16:01:07;10.30;97.00
25046;DHT22;13044;49.304;12.840;2024-03-23T16:03:37;10.20;96.60
25046;DHT22;13044;49.304;12.840;2024-03-23T16:06:05;10.20;96.90
25046;DHT22;13044;49.304;12.840;2024-03-23T16:08:33;10.20;97.20
25046;DHT22;13044;49.304;12.840;2024-03-23T16:11:04;10.20;97.50
25046;DHT22;13044;49.304;12.840;2024-03-23T16:13:32;10.20;97.70
25046;DHT22;13044;49.304;12.840;2024-03-23T16:16:03;10.30;97.70
25046;DHT22;13044;49.304;12.840;2024-03-23T16:18:32;10.30;97.00
25046;DHT22;13044;49.304;12.840;2024-03-23T16:21:00;10.20;97.40
25046;DHT22;13044;49.304;12.840;2024-03-23T16:23:27;10.20;97.70
25046;DHT22;13044;49.304;12.840;2024-03-23T16:25:55;10.20;97.90
25046;DHT22;13044;49.304;12.840;2024-03-23T16:28:26;10.20;97.90
25046;DHT22;13044;49.304;12.840;2024-03-23T16:33:27;10.20;98.10
25046;DHT22;13044;49.304;12.840;2024-03-23T16:36:06;10.20;97.90